Time;durP1;ratioP1;P1;durP2;ratioP2;P2;SDS_P1;SDS_P2;PMS_P1;PMS_P2;Temp;Humidity;BMP_temperature;BMP_pressure;BME280_temperature;BME280_humidity;BME280_pressure;Samples;Min_cycle;Max_cycle;Signal;HPM_P1;HPM_P2
2022/09/04 00:02:05;;;;;;;0.88;0.77;;;16.60;99.90;;;;;;4973259;28;20106;-71
2022/09/04 00:04:36;;;;;;;1.17;0.63;;;16.60;99.90;;;;;;4972521;28;20027;-69
2022/09/04 00:07:17;;;;;;;0.98;0.85;;;16.60;99.90;;;;;;4978764;28;20031;-73
2022/09/04 00:09:56;;;;;;;2.40;0.52;;;16.50;99.90;;;;;;4971895;28;20062;-70
2022/09/04 00:12:34;;;;;;;0.80;0.63;;;16.50;99.90;;;;;;4973272;28;20101;-70
2022/09/04 00:15:35;;;;;;;0.80;0.80;;;16.50;99.90;;;;;;4972669;28;20049;-71
2022/09/04 00:18:29;;;;;;;2.08;1.02;;;16.50;99.90;;;;;;4972461;28;20234;-71
2022/09/04 00:21:19;;;;;;;1.27;0.70;;;16.40;99.90;;;;;;4973416;28;20019;-70
2022/09/04 00:23:53;;;;;;;1.08;0.77;;;16.40;99.90;;;;;;4972236;28;20031;-69
2022/09/04 00:26:57;;;;;;;1.58;0.90;;;16.40;99.90;;;;;;4972775;28;20078;-69
2022/09/04 00:29:43;;;;;;;1.73;0.63;;;16.30;99.90;;;;;;4973251;28;20047;-71
2022/09/04 00:32:24;;;;;;;1.42;0.85;;;16.30;99.90;;;;;;4972117;28;20020;-70
2022/09/04 00:35:13;;;;;;;2.38;1.20;;;16.30;99.90;;;;;;4972967;28;20065;-70
2022/09/04 00:38:05;;;;;;;3.28;1.08;;;16.20;99.90;;;;;;4972122;28;20103;-70
2022/09/04 00:40:32;;;;;;;0.70;0.68;;;16.30;99.90;;;;;;4964391;28;20039;-70
2022/09/04 00:43:39;;;;;;;0.80;0.70;;;16.20;99.90;;;;;;4971770;28;20566;-70
2022/09/04 00:46:28;;;;;;;1.50;0.80;;;16.20;99.90;;;;;;4972868;28;20426;-71
2022/09/04 00:49:04;;;;;;;1.35;0.77;;;16.20;99.90;;;;;;4972862;28;20031;-70
2022/09/04 00:51:36;;;;;;;1.55;0.70;;;16.10;99.90;;;;;;4972473;28;20078;-70
2022/09/04 00:54:29;;;;;;;3.03;0.70;;;16.10;99.90;;;;;;4972878;28;20565;-71
2022/09/04 00:57:12;;;;;;;0.68;0.50;;;16.00;99.90;;;;;;4972711;28;20872;-71
2022/09/04 00:59:59;;;;;;;1.38;0.95;;;16.00;99.90;;;;;;4971193;28;20487;-70
2022/09/04 01:02:46;;;;;;;5.20;0.95;;;16.00;99.90;;;;;;4973477;28;20030;-70
2022/09/04 01:05:46;;;;;;;26.48;0.90;;;15.90;99.90;;;;;;4972527;28;20027;-70
2022/09/04 01:08:23;;;;;;;0.98;0.70;;;15.90;99.90;;;;;;4972808;28;20062;-70
2022/09/04 01:11:30;;;;;;;0.98;0.60;;;15.90;99.90;;;;;;4971688;28;20778;-71
2022/09/04 01:14:33;;;;;;;1.83;0.90;;;15.80;99.90;;;;;;4972575;28;20032;-71
2022/09/04 01:17:08;;;;;;;0.50;0.50;;;15.80;99.90;;;;;;4971989;28;20063;-71
2022/09/04 01:19:49;;;;;;;1.52;0.82;;;15.80;99.90;;;;;;4972992;28;20099;-71
2022/09/04 01:22:41;;;;;;;0.77;0.70;;;15.80;99.90;;;;;;4972549;28;20038;-69
2022/09/04 01:25:19;;;;;;;2.60;0.77;;;15.80;99.90;;;;;;4973046;28;20054;-71
2022/09/04 01:27:58;;;;;;;7.40;0.70;;;15.70;99.90;;;;;;4975627;28;20035;-69
2022/09/04 01:30:24;;;;;;;2.17;0.90;;;15.70;99.90;;;;;;4976202;28;20058;-70
2022/09/04 01:33:00;;;;;;;1.20;0.80;;;15.70;99.90;;;;;;4974866;28;20031;-70
2022/09/04 01:35:57;;;;;;;1.88;0.73;;;15.70;99.90;;;;;;4975743;28;20091;-72
2022/09/04 01:38:58;;;;;;;0.73;0.63;;;15.70;99.90;;;;;;4976314;28;20031;-70
2022/09/04 01:41:27;;;;;;;0.60;0.57;;;15.60;99.90;;;;;;4975590;28;20027;-69
2022/09/04 01:43:53;;;;;;;3.25;0.73;;;15.50;99.90;;;;;;4975424;28;20035;-70
2022/09/04 01:46:43;;;;;;;1.60;0.98;;;15.50;99.90;;;;;;4974974;28;20387;-71
2022/09/04 01:49:22;;;;;;;1.67;0.68;;;15.40;99.90;;;;;;4982625;28;20034;-70
2022/09/04 01:52:06;;;;;;;3.65;0.90;;;15.40;99.90;;;;;;4975918;28;20034;-70
2022/09/04 01:55:23;;;;;;;1.42;0.75;;;15.30;99.90;;;;;;4973231;28;20035;-71
2022/09/04 01:57:55;;;;;;;1.50;0.82;;;15.30;99.90;;;;;;4979296;28;20601;-69
2022/09/04 02:00:26;;;;;;;3.05;1.15;;;15.30;99.90;;;;;;4981801;28;20045;-71
2022/09/04 02:02:58;;;;;;;2.53;0.82;;;15.20;99.90;;;;;;4975013;28;20023;-71
2022/09/04 02:05:35;;;;;;;3.42;1.30;;;15.10;99.90;;;;;;4975748;28;20031;-70
2022/09/04 02:08:10;;;;;;;1.67;0.88;;;15.10;99.90;;;;;;4974877;28;20071;-70
2022/09/04 02:10:55;;;;;;;1.25;0.70;;;15.10;99.90;;;;;;4975055;28;20027;-70
2022/09/04 02:13:43;;;;;;;1.65;1.00;;;15.00;99.90;;;;;;4974413;28;20031;-70
2022/09/04 02:16:47;;;;;;;1.88;0.93;;;14.90;99.90;;;;;;4975283;28;20035;-70
2022/09/04 02:19:46;;;;;;;1.67;1.00;;;14.90;99.90;;;;;;4975189;28;20141;-71
2022/09/04 02:22:18;;;;;;;2.95;1.08;;;14.90;99.90;;;;;;4952345;28;20082;-70
2022/09/04 02:25:04;;;;;;;2.35;1.10;;;14.80;99.90;;;;;;4974814;28;20055;-70
2022/09/04 02:27:48;;;;;;;2.75;0.82;;;14.80;99.90;;;;;;4975250;28;20344;-71
2022/09/04 02:30:17;;;;;;;1.50;0.85;;;14.70;99.90;;;;;;4974910;28;20043;-70
2022/09/04 02:33:02;;;;;;;1.30;0.70;;;14.70;99.90;;;;;;4974601;28;20499;-69
2022/09/04 02:35:51;;;;;;;1.23;0.70;;;14.70;99.90;;;;;;4974718;28;20019;-70
2022/09/04 02:38:36;;;;;;;1.55;1.00;;;14.60;99.90;;;;;;4973594;28;20513;-70
2022/09/04 02:41:34;;;;;;;1.17;0.65;;;14.60;99.90;;;;;;4974570;28;20027;-71
2022/09/04 02:44:14;;;;;;;3.20;1.30;;;14.60;99.90;;;;;;4969923;28;20039;-70
2022/09/04 02:46:49;;;;;;;3.20;1.05;;;14.60;99.90;;;;;;4974651;28;20034;-70
2022/09/04 02:49:35;;;;;;;1.80;0.77;;;14.60;99.90;;;;;;4974296;28;20077;-70
2022/09/04 02:52:32;;;;;;;0.85;0.70;;;14.50;99.90;;;;;;4975417;28;20044;-71
2022/09/04 02:55:30;;;;;;;0.90;0.60;;;14.50;99.90;;;;;;4973847;28;20158;-69
2022/09/04 02:58:01;;;;;;;1.75;0.73;;;14.50;99.90;;;;;;4973910;28;20022;-71
2022/09/04 03:00:47;;;;;;;1.85;0.80;;;14.40;99.90;;;;;;4973558;28;20527;-72
2022/09/04 03:03:36;;;;;;;9.85;1.02;;;14.40;99.90;;;;;;4973556;28;20042;-70
2022/09/04 03:06:12;;;;;;;2.97;0.90;;;14.40;99.90;;;;;;4974499;28;20023;-70
2022/09/04 03:09:01;;;;;;;5.05;1.02;;;14.40;99.90;;;;;;4973854;28;20475;-70
2022/09/04 03:11:44;;;;;;;12.23;1.25;;;14.40;99.90;;;;;;4974054;28;20042;-71
2022/09/04 03:14:33;;;;;;;3.40;0.68;;;14.30;99.90;;;;;;4980859;28;20031;-69
2022/09/04 03:17:26;;;;;;;2.35;1.05;;;14.30;99.90;;;;;;4972661;28;20031;-71
2022/09/04 03:20:12;;;;;;;1.92;0.80;;;14.30;99.90;;;;;;4973580;28;20023;-69
2022/09/04 03:22:43;;;;;;;4.43;0.80;;;14.30;99.90;;;;;;4974072;28;20034;-70
2022/09/04 03:25:56;;;;;;;1.65;0.80;;;14.30;99.90;;;;;;4973100;28;20028;-70
2022/09/04 03:28:53;;;;;;;3.03;1.20;;;14.30;99.90;;;;;;4946596;28;20570;-70
2022/09/04 03:31:30;;;;;;;1.95;0.68;;;14.30;99.90;;;;;;4973466;28;21001;-71
2022/09/04 03:34:23;;;;;;;1.08;0.57;;;14.20;99.90;;;;;;4973691;28;20054;-69
2022/09/04 03:37:17;;;;;;;1.67;0.95;;;14.20;99.90;;;;;;4973561;28;20037;-70
2022/09/04 03:40:13;;;;;;;2.65;1.35;;;14.20;99.90;;;;;;4973444;28;20031;-70
2022/09/04 03:43:12;;;;;;;1.48;0.93;;;14.20;99.90;;;;;;4973585;28;20037;-70
2022/09/04 03:46:00;;;;;;;5.55;1.13;;;14.10;99.90;;;;;;4973241;28;20031;-70
2022/09/04 03:48:47;;;;;;;1.05;0.60;;;14.10;99.90;;;;;;4973212;28;20089;-71
2022/09/04 03:51:53;;;;;;;2.90;1.15;;;14.10;99.90;;;;;;4973713;28;20027;-70
2022/09/04 03:54:39;;;;;;;1.30;0.75;;;14.00;99.90;;;;;;4973357;28;20082;-69
2022/09/04 03:57:32;;;;;;;1.90;0.73;;;14.00;99.90;;;;;;4973523;28;20031;-70
2022/09/04 04:00:10;;;;;;;1.05;0.52;;;14.00;99.90;;;;;;4972995;28;20018;-70
2022/09/04 04:02:47;;;;;;;1.55;1.02;;;13.90;99.90;;;;;;4973542;28;20027;-70
2022/09/04 04:05:21;;;;;;;4.43;1.27;;;13.90;99.90;;;;;;4973462;28;20059;-70
2022/09/04 04:08:03;;;;;;;9.95;1.27;;;13.90;99.90;;;;;;4972567;28;20064;-70
2022/09/04 04:10:32;;;;;;;1.55;0.90;;;13.80;99.90;;;;;;4973360;28;20031;-70
2022/09/04 04:13:14;;;;;;;2.05;0.95;;;13.80;99.90;;;;;;4973151;28;20094;-70
2022/09/04 04:15:45;;;;;;;1.52;0.82;;;13.80;99.90;;;;;;4973625;28;20037;-71
2022/09/04 04:18:35;;;;;;;1.83;0.98;;;13.80;99.90;;;;;;4973082;28;20038;-72
2022/09/04 04:21:39;;;;;;;1.13;0.80;;;13.80;99.90;;;;;;4972633;28;20054;-71
2022/09/04 04:24:31;;;;;;;1.95;0.55;;;13.70;99.90;;;;;;4972711;28;20030;-72
2022/09/04 04:27:24;;;;;;;1.45;0.70;;;13.70;99.90;;;;;;4972699;28;20372;-72
2022/09/04 04:29:53;;;;;;;1.42;1.10;;;13.70;99.90;;;;;;4973510;28;20031;-70
2022/09/04 04:32:28;;;;;;;1.75;1.00;;;13.70;99.90;;;;;;4972509;28;20793;-70
2022/09/04 04:35:07;;;;;;;0.90;0.88;;;13.70;99.90;;;;;;4972965;28;20047;-70
2022/09/04 04:38:02;;;;;;;2.15;0.90;;;13.60;99.90;;;;;;4972724;28;20050;-71
2022/09/04 04:40:41;;;;;;;0.70;0.70;;;13.60;99.90;;;;;;4973272;28;20165;-71
2022/09/04 04:43:25;;;;;;;1.13;1.02;;;13.60;99.90;;;;;;4972460;28;20031;-70
2022/09/04 04:46:16;;;;;;;3.53;0.75;;;13.60;99.90;;;;;;4973097;28;20075;-69
2022/09/04 04:48:42;;;;;;;5.55;1.20;;;13.60;99.90;;;;;;4972303;28;20039;-71
2022/09/04 04:51:39;;;;;;;1.50;0.80;;;13.70;99.90;;;;;;4979773;28;20037;-70
2022/09/04 04:54:08;;;;;;;1.23;1.00;;;13.60;99.90;;;;;;4972423;28;20027;-70
2022/09/04 04:56:49;;;;;;;0.82;0.73;;;13.60;99.90;;;;;;4972719;28;20027;-70
2022/09/04 04:59:40;;;;;;;1.45;1.02;;;13.60;99.90;;;;;;4972234;28;20031;-73
2022/09/04 05:02:27;;;;;;;1.75;1.05;;;13.50;99.90;;;;;;4975732;28;20027;-71
2022/09/04 05:05:04;;;;;;;3.13;1.30;;;13.60;99.90;;;;;;4976757;28;20039;-72
2022/09/04 05:08:14;;;;;;;1.15;0.70;;;13.60;99.90;;;;;;4973939;28;20019;-74
2022/09/04 05:11:04;;;;;;;3.05;1.45;;;13.60;99.90;;;;;;4975962;28;20118;-71
2022/09/04 05:13:49;;;;;;;0.63;0.63;;;13.60;99.90;;;;;;4972712;28;20063;-72
2022/09/04 05:16:24;;;;;;;1.60;0.93;;;13.60;99.90;;;;;;4975608;28;20035;-71
2022/09/04 05:19:14;;;;;;;1.30;0.90;;;13.70;99.90;;;;;;4975861;28;20027;-72
2022/09/04 05:22:15;;;;;;;1.40;0.90;;;13.70;99.90;;;;;;4976391;28;20047;-71
2022/09/04 05:25:11;;;;;;;1.92;0.82;;;13.70;99.90;;;;;;4975261;28;20071;-71
2022/09/04 05:28:15;;;;;;;1.02;0.60;;;13.80;99.90;;;;;;4974976;28;20035;-71
2022/09/04 05:30:51;;;;;;;1.58;1.00;;;13.80;99.90;;;;;;4975528;28;20480;-72
2022/09/04 05:33:44;;;;;;;1.55;0.90;;;13.90;99.90;;;;;;4972120;28;20035;-71
2022/09/04 05:36:35;;;;;;;1.65;1.02;;;13.90;99.90;;;;;;4975043;28;20035;-71
2022/09/04 05:39:17;;;;;;;1.80;0.93;;;14.00;99.90;;;;;;4976778;28;20066;-71
2022/09/04 05:41:46;;;;;;;3.05;1.08;;;14.00;99.90;;;;;;4975960;28;20019;-71
2022/09/04 05:44:17;;;;;;;2.35;1.00;;;14.20;99.90;;;;;;4975272;28;20031;-71
2022/09/04 05:47:11;;;;;;;2.00;1.00;;;14.20;99.90;;;;;;4972086;28;20034;-72
2022/09/04 05:50:04;;;;;;;1.83;0.95;;;14.30;99.90;;;;;;4972759;28;20103;-71
2022/09/04 05:52:47;;;;;;;2.05;1.13;;;14.40;99.90;;;;;;4978672;28;20047;-72
2022/09/04 05:55:20;;;;;;;1.70;0.85;;;14.40;99.90;;;;;;4974380;28;20042;-71
2022/09/04 05:58:00;;;;;;;1.35;0.90;;;14.40;99.90;;;;;;4976016;28;20059;-71
2022/09/04 06:00:59;;;;;;;6.72;1.10;;;14.40;99.90;;;;;;4976007;28;20031;-71
2022/09/04 06:04:03;;;;;;;3.30;1.05;;;14.40;99.90;;;;;;4975867;28;20019;-71
2022/09/04 06:07:02;;;;;;;4.90;1.27;;;14.50;99.90;;;;;;4953981;28;20590;-72
2022/09/04 06:09:43;;;;;;;1.48;0.95;;;14.50;99.90;;;;;;4975503;28;20034;-73
2022/09/04 06:12:37;;;;;;;1.00;0.85;;;14.50;99.90;;;;;;4974080;28;20042;-71
2022/09/04 06:15:10;;;;;;;2.33;1.30;;;14.50;99.90;;;;;;4974886;28;20023;-72
2022/09/04 06:17:59;;;;;;;9.02;1.00;;;14.50;99.90;;;;;;4973793;28;20039;-71
2022/09/04 06:21:03;;;;;;;5.07;1.02;;;14.60;99.90;;;;;;4973799;28;20098;-71
2022/09/04 06:23:44;;;;;;;2.13;1.05;;;14.60;99.90;;;;;;4945164;28;20160;-71
2022/09/04 06:26:26;;;;;;;3.35;1.27;;;14.70;99.90;;;;;;4979529;28;20027;-72
2022/09/04 06:29:01;;;;;;;1.35;0.95;;;14.70;99.90;;;;;;4975273;28;20716;-72
2022/09/04 06:32:16;;;;;;;11.40;0.93;;;14.80;99.90;;;;;;4973358;28;20480;-73
2022/09/04 06:34:50;;;;;;;2.45;1.02;;;14.80;99.90;;;;;;4942234;29;20054;-72
2022/09/04 06:37:29;;;;;;;1.05;0.80;;;14.90;99.90;;;;;;4942630;29;20444;-71
2022/09/04 06:40:28;;;;;;;1.88;1.13;;;14.90;99.90;;;;;;4950061;29;20566;-71
2022/09/04 06:43:28;;;;;;;1.88;1.17;;;15.00;99.90;;;;;;4955940;29;20020;-73
2022/09/04 06:46:12;;;;;;;2.28;1.02;;;15.10;99.90;;;;;;4954841;29;20063;-72
2022/09/04 06:48:54;;;;;;;1.67;1.25;;;15.10;99.90;;;;;;4952079;28;20035;-71
2022/09/04 06:51:20;;;;;;;3.38;1.48;;;15.30;99.90;;;;;;4954778;29;20035;-71
2022/09/04 06:54:16;;;;;;;1.75;1.10;;;15.40;99.90;;;;;;4954517;29;20091;-71
2022/09/04 06:57:03;;;;;;;2.22;1.08;;;15.40;99.90;;;;;;4950117;29;20123;-72
2022/09/04 07:00:00;;;;;;;1.35;1.08;;;15.50;99.90;;;;;;4952208;29;20035;-74
2022/09/04 07:02:40;;;;;;;1.27;1.17;;;15.60;99.90;;;;;;4954314;29;20050;-71
2022/09/04 07:05:19;;;;;;;4.88;1.42;;;15.70;99.90;;;;;;4952615;29;20027;-72
2022/09/04 07:08:07;;;;;;;3.17;1.55;;;15.80;99.90;;;;;;4952050;29;20039;-74
2022/09/04 07:10:59;;;;;;;1.15;0.93;;;15.90;99.90;;;;;;4954500;29;20689;-74
2022/09/04 07:13:35;;;;;;;1.50;0.80;;;16.00;99.90;;;;;;4954992;29;20122;-71
2022/09/04 07:16:18;;;;;;;2.15;1.30;;;16.10;99.90;;;;;;4954339;29;20032;-71
2022/09/04 07:19:15;;;;;;;1.23;0.73;;;16.30;99.90;;;;;;4954920;28;20042;-71
2022/09/04 07:21:59;;;;;;;3.45;1.30;;;16.40;99.90;;;;;;4954679;29;20041;-74
2022/09/04 07:24:28;;;;;;;1.95;1.23;;;16.50;99.90;;;;;;4954857;28;20031;-74
2022/09/04 07:27:14;;;;;;;1.50;0.90;;;16.70;99.90;;;;;;4949352;29;20061;-71
2022/09/04 07:29:52;;;;;;;1.52;1.05;;;16.80;99.90;;;;;;4954228;29;20134;-72
2022/09/04 07:32:22;;;;;;;2.50;1.38;;;16.90;99.90;;;;;;4955471;28;20038;-72
2022/09/04 07:35:13;;;;;;;4.65;1.40;;;17.00;99.90;;;;;;4971351;28;20043;-75
2022/09/04 07:37:59;;;;;;;2.05;1.50;;;17.10;99.90;;;;;;4974006;28;20480;-76
2022/09/04 07:40:46;;;;;;;3.13;1.50;;;17.20;99.90;;;;;;4973096;28;20047;-72
2022/09/04 07:43:22;;;;;;;1.33;1.10;;;17.30;99.90;;;;;;4973540;28;20035;-73
2022/09/04 07:45:59;;;;;;;2.80;1.27;;;17.40;99.90;;;;;;4973817;28;20402;-72
2022/09/04 07:48:42;;;;;;;2.45;1.10;;;17.60;99.90;;;;;;4973707;28;20110;-73
2022/09/04 07:51:24;;;;;;;2.80;1.90;;;17.70;99.90;;;;;;4973284;28;20084;-71
2022/09/04 07:54:30;;;;;;;5.63;1.73;;;17.80;99.90;;;;;;4974276;28;20054;-73
2022/09/04 07:57:15;;;;;;;12.70;1.80;;;17.90;99.90;;;;;;4972860;28;20054;-71
2022/09/04 08:00:01;;;;;;;2.90;1.35;;;18.00;99.90;;;;;;4972792;28;20045;-75
2022/09/04 08:02:42;;;;;;;3.00;1.63;;;18.10;99.90;;;;;;4972954;28;20054;-75
2022/09/04 08:05:20;;;;;;;3.17;1.63;;;18.20;99.90;;;;;;4972743;28;20058;-72
2022/09/04 08:08:02;;;;;;;2.67;1.67;;;18.30;99.90;;;;;;4973643;28;20495;-74
2022/09/04 08:10:30;;;;;;;3.75;1.63;;;18.40;99.90;;;;;;4973739;28;20037;-74
2022/09/04 08:13:08;;;;;;;4.82;2.10;;;18.50;99.90;;;;;;4971733;28;20031;-71
2022/09/04 08:15:57;;;;;;;3.35;1.75;;;18.60;99.90;;;;;;4973473;28;20039;-70
2022/09/04 08:19:08;;;;;;;1.85;1.27;;;18.70;99.90;;;;;;4973034;28;20510;-71
2022/09/04 08:21:38;;;;;;;2.35;1.58;;;18.80;99.90;;;;;;4971171;28;20020;-73
2022/09/04 08:24:32;;;;;;;2.17;1.23;;;18.90;99.90;;;;;;4972665;28;20110;-73
2022/09/04 08:27:10;;;;;;;9.20;1.70;;;19.00;99.90;;;;;;4972469;28;20030;-72
2022/09/04 08:29:48;;;;;;;2.78;1.80;;;19.20;99.90;;;;;;4987364;28;20563;-73
2022/09/04 08:32:38;;;;;;;2.22;1.38;;;19.30;99.90;;;;;;4972598;28;20035;-73
2022/09/04 08:35:26;;;;;;;2.88;1.50;;;19.40;99.90;;;;;;4972316;28;20448;-74
2022/09/04 08:38:17;;;;;;;3.38;1.48;;;19.50;99.90;;;;;;4976036;28;20063;-71
2022/09/04 08:40:51;;;;;;;2.58;1.60;;;19.60;99.90;;;;;;4976342;28;20019;-73
2022/09/04 08:43:55;;;;;;;4.80;1.27;;;19.70;99.90;;;;;;4983354;28;20046;-75
2022/09/04 08:46:43;;;;;;;4.15;2.00;;;19.90;99.90;;;;;;4976796;28;20042;-74
2022/09/04 08:49:37;;;;;;;12.90;1.48;;;20.00;99.90;;;;;;4976310;28;20035;-70
2022/09/04 08:52:24;;;;;;;2.20;1.38;;;20.10;99.90;;;;;;4976804;28;20050;-70
2022/09/04 08:55:08;;;;;;;3.85;1.80;;;20.20;99.90;;;;;;4976423;28;20049;-71
2022/09/04 08:57:34;;;;;;;4.85;1.60;;;20.30;99.90;;;;;;4976948;28;20113;-71
2022/09/04 09:00:19;;;;;;;3.13;1.40;;;20.40;99.90;;;;;;4974725;28;20110;-72
2022/09/04 09:02:54;;;;;;;5.75;1.73;;;20.60;99.90;;;;;;4971681;28;20031;-71
2022/09/04 09:05:55;;;;;;;2.42;1.30;;;20.60;99.90;;;;;;4975180;28;20051;-72
2022/09/04 09:08:49;;;;;;;3.58;1.80;;;20.80;99.90;;;;;;4913587;29;20104;-73
2022/09/04 09:11:34;;;;;;;2.63;1.65;;;20.90;99.90;;;;;;4968910;28;20042;-71
2022/09/04 09:14:46;;;;;;;2.65;1.52;;;21.00;99.90;;;;;;4973403;28;20091;-73
2022/09/04 09:17:14;;;;;;;2.50;1.45;;;21.10;99.90;;;;;;4973247;28;20031;-71
2022/09/04 09:19:50;;;;;;;2.35;1.50;;;21.20;99.90;;;;;;4968666;28;20097;-73
2022/09/04 09:22:47;;;;;;;2.33;1.52;;;21.40;99.90;;;;;;4975539;28;20031;-78
2022/09/04 09:25:32;;;;;;;4.68;1.58;;;21.50;99.90;;;;;;4972929;28;20043;-74
2022/09/04 09:28:36;;;;;;;2.75;1.70;;;21.50;99.90;;;;;;4973311;28;20039;-71
2022/09/04 09:31:25;;;;;;;4.75;1.98;;;21.60;99.90;;;;;;4973991;28;20027;-76
2022/09/04 09:33:58;;;;;;;4.63;1.40;;;21.70;99.90;;;;;;4975810;28;20061;-72
2022/09/04 09:36:44;;;;;;;5.63;1.67;;;21.80;99.90;;;;;;4973487;28;20038;-72
2022/09/04 09:39:41;;;;;;;1.92;1.08;;;21.90;99.90;;;;;;4976451;28;20536;-72
2022/09/04 09:42:31;;;;;;;1.75;1.30;;;22.00;99.90;;;;;;4974874;28;20086;-74
2022/09/04 09:45:30;;;;;;;2.05;1.40;;;22.10;99.90;;;;;;4976418;28;20023;-74
2022/09/04 09:48:24;;;;;;;4.72;1.63;;;22.30;99.90;;;;;;4976009;28;20027;-73
2022/09/04 09:51:04;;;;;;;8.30;1.95;;;22.40;99.90;;;;;;4973907;28;20042;-71
2022/09/04 09:53:48;;;;;;;2.28;1.30;;;22.50;99.90;;;;;;4974803;28;20535;-74
2022/09/04 09:56:24;;;;;;;4.07;1.90;;;22.60;99.90;;;;;;4979065;28;20043;-72
2022/09/04 09:59:00;;;;;;;3.65;1.40;;;22.70;99.90;;;;;;4990262;28;20043;-74
2022/09/04 10:01:44;;;;;;;6.53;2.00;;;22.80;99.90;;;;;;4975512;28;20031;-74
2022/09/04 10:04:20;;;;;;;8.57;1.67;;;22.90;99.90;;;;;;4974608;28;20030;-75
2022/09/04 10:07:13;;;;;;;2.25;1.42;;;23.00;99.90;;;;;;4976005;28;20479;-72
2022/09/04 10:09:44;;;;;;;3.00;1.63;;;23.00;99.90;;;;;;4974719;28;20039;-71
2022/09/04 10:12:10;;;;;;;7.90;1.77;;;23.10;99.90;;;;;;4975078;28;20030;-75
2022/09/04 10:14:52;;;;;;;1.65;1.17;;;23.20;99.90;;;;;;4974988;28;20075;-72
2022/09/04 10:17:39;;;;;;;2.95;1.63;;;23.30;99.90;;;;;;4975077;28;20022;-71
2022/09/04 10:20:39;;;;;;;3.58;1.65;;;23.50;99.90;;;;;;4974852;28;20027;-75
2022/09/04 10:23:25;;;;;;;3.60;1.70;;;23.60;99.90;;;;;;4974962;28;20031;-71
2022/09/04 10:26:24;;;;;;;3.63;1.50;;;23.70;99.90;;;;;;4972295;28;20011;-70
2022/09/04 10:29:18;;;;;;;3.45;2.03;;;23.90;99.90;;;;;;4974383;28;20042;-70
2022/09/04 10:31:56;;;;;;;3.05;1.05;;;23.90;99.90;;;;;;4970137;28;20031;-71
2022/09/04 10:34:37;;;;;;;1.50;1.08;;;24.00;99.90;;;;;;4970835;28;20062;-73
2022/09/04 10:37:25;;;;;;;4.15;1.65;;;24.10;99.90;;;;;;4972980;28;20035;-71
2022/09/04 10:43:27;;;;;;;7.75;1.30;;;24.20;99.90;;;;;;5039860;28;20040;-71
2022/09/04 10:46:02;;;;;;;2.25;1.20;;;24.20;99.90;;;;;;5040343;28;20036;-72
2022/09/04 10:48:52;;;;;;;6.07;1.73;;;24.40;99.90;;;;;;4995389;28;20145;-74
2022/09/04 10:51:33;;;;;;;1.75;1.27;;;24.50;99.90;;;;;;4973448;28;20031;-71
2022/09/04 10:54:17;;;;;;;2.67;1.50;;;24.50;99.90;;;;;;4974809;28;20038;-75
2022/09/04 10:57:11;;;;;;;2.67;1.25;;;24.50;99.90;;;;;;4973629;28;20062;-71
2022/09/04 10:59:59;;;;;;;2.30;1.15;;;24.50;99.90;;;;;;4976153;28;20043;-73
2022/09/04 11:02:46;;;;;;;2.00;1.38;;;24.70;99.90;;;;;;4973463;28;20039;-73
2022/09/04 11:05:24;;;;;;;1.90;1.15;;;24.80;99.90;;;;;;4973297;28;20494;-72
2022/09/04 11:08:14;;;;;;;4.07;1.70;;;25.00;99.90;;;;;;4973235;28;20939;-74
2022/09/04 11:11:31;;;;;;;3.22;1.48;;;25.20;99.90;;;;;;4974003;28;20023;-72
2022/09/04 11:14:28;;;;;;;10.27;1.55;;;25.20;99.90;;;;;;4941153;28;20035;-71
2022/09/04 11:17:08;;;;;;;5.20;1.70;;;25.30;99.90;;;;;;4973739;28;20026;-72
2022/09/04 11:19:53;;;;;;;1.70;1.20;;;25.40;99.90;;;;;;4974940;28;20258;-71
2022/09/04 11:23:03;;;;;;;2.33;1.48;;;25.40;99.90;;;;;;4973464;28;20549;-73
2022/09/04 11:26:04;;;;;;;4.80;1.15;;;25.50;99.90;;;;;;4974094;28;20413;-72
2022/09/04 11:28:51;;;;;;;2.47;1.25;;;25.60;99.90;;;;;;4974955;28;20502;-75
2022/09/04 11:31:54;;;;;;;2.60;1.48;;;25.70;99.90;;;;;;4972972;28;20027;-73
2022/09/04 11:34:49;;;;;;;1.80;1.13;;;25.70;99.20;;;;;;4972751;28;20059;-76
2022/09/04 11:37:37;;;;;;;13.05;1.42;;;25.70;99.40;;;;;;4973879;28;20110;-73
2022/09/04 11:40:23;;;;;;;1.20;1.10;;;25.70;98.80;;;;;;4973345;28;20042;-74
2022/09/04 11:43:03;;;;;;;1.65;0.90;;;25.80;99.60;;;;;;4974021;28;20034;-73
2022/09/04 11:45:47;;;;;;;7.13;1.40;;;25.90;98.80;;;;;;4973492;28;20046;-74
2022/09/04 11:48:28;;;;;;;1.40;0.90;;;25.90;99.20;;;;;;4973524;28;20039;-76
2022/09/04 11:51:15;;;;;;;2.75;1.45;;;25.90;99.30;;;;;;4988765;28;20042;-75
2022/09/04 11:54:16;;;;;;;3.15;1.13;;;25.90;98.90;;;;;;4972122;28;20111;-73
2022/09/04 11:57:15;;;;;;;1.80;1.13;;;26.00;98.80;;;;;;4973649;28;20065;-72
2022/09/04 12:00:00;;;;;;;1.92;1.17;;;26.20;98.90;;;;;;4973102;28;20046;-74
2022/09/04 12:02:46;;;;;;;2.72;1.20;;;26.50;99.20;;;;;;4973286;28;20023;-74
2022/09/04 12:05:38;;;;;;;3.75;1.65;;;26.60;98.30;;;;;;4973114;28;20015;-75
2022/09/04 12:08:49;;;;;;;6.78;1.30;;;26.80;98.20;;;;;;4972716;28;20031;-74
2022/09/04 12:11:33;;;;;;;5.30;1.50;;;26.70;97.40;;;;;;4970949;28;20099;-73
2022/09/04 12:14:27;;;;;;;1.80;0.90;;;26.80;98.00;;;;;;4968784;28;20031;-75
2022/09/04 12:16:56;;;;;;;1.27;0.98;;;26.90;97.50;;;;;;4973623;28;20490;-74
2022/09/04 12:19:41;;;;;;;6.45;1.05;;;27.00;98.40;;;;;;4972814;28;20078;-76
2022/09/04 12:22:35;;;;;;;;;;;27.00;97.50;;;;;;4973102;28;20118;-76
2022/09/04 12:25:09;;;;;;;2.92;1.05;;;27.00;96.80;;;;;;4970683;28;19906;-74
2022/09/04 12:27:54;;;;;;;1.80;1.15;;;27.10;98.60;;;;;;4972996;28;20110;-74
2022/09/04 12:30:22;;;;;;;1.83;1.23;;;27.10;98.00;;;;;;4972998;28;20036;-74
2022/09/04 12:33:07;;;;;;;4.88;1.58;;;27.10;98.20;;;;;;4973001;28;20114;-72
2022/09/04 12:35:59;;;;;;;6.78;1.80;;;27.20;96.90;;;;;;4971618;28;20126;-75
2022/09/04 12:38:49;;;;;;;4.88;1.40;;;27.40;97.70;;;;;;4972964;28;20033;-72
2022/09/04 12:41:53;;;;;;;1.83;1.23;;;27.60;97.90;;;;;;4972785;28;20031;-71
2022/09/04 12:44:31;;;;;;;2.13;1.52;;;27.70;98.00;;;;;;4972498;28;20030;-74
2022/09/04 12:47:15;;;;;;;1.48;1.10;;;27.80;97.90;;;;;;4972884;28;20031;-72
2022/09/04 12:50:08;;;;;;;3.00;0.93;;;27.80;97.50;;;;;;4972401;28;20046;-72
2022/09/04 12:53:09;;;;;;;1.63;1.00;;;27.70;97.20;;;;;;4972963;28;20117;-73
2022/09/04 12:55:49;;;;;;;1.73;0.90;;;27.80;97.80;;;;;;4970576;28;20067;-74
2022/09/04 12:58:30;;;;;;;4.88;1.58;;;28.00;97.10;;;;;;4972935;28;20035;-73
2022/09/04 13:01:20;;;;;;;2.83;0.98;;;28.10;97.20;;;;;;4972575;28;20039;-73
2022/09/04 13:04:14;;;;;;;1.05;0.85;;;28.30;97.50;;;;;;4978859;28;20031;-72
2022/09/04 13:06:55;;;;;;;2.10;0.90;;;28.40;96.70;;;;;;4972789;28;20086;-72
2022/09/04 13:09:40;;;;;;;1.67;1.45;;;28.50;96.20;;;;;;4972755;28;20158;-71
2022/09/04 13:12:33;;;;;;;2.35;1.35;;;28.60;96.40;;;;;;4983316;28;20020;-74
2022/09/04 13:15:12;;;;;;;1.85;1.10;;;28.60;96.20;;;;;;4971890;28;20035;-74
2022/09/04 13:18:10;;;;;;;1.30;1.13;;;28.60;95.40;;;;;;4972698;28;20069;-71
2022/09/04 13:20:39;;;;;;;2.42;1.25;;;28.70;96.20;;;;;;4967855;28;20055;-70
2022/09/04 13:24:01;;;;;;;1.80;1.45;;;28.90;96.70;;;;;;4976426;28;20062;-70
2022/09/04 13:27:01;;;;;;;9.32;1.60;;;29.00;94.60;;;;;;4924927;29;20036;-74
2022/09/04 13:29:45;;;;;;;3.03;1.02;;;29.10;95.70;;;;;;4897557;29;20139;-74
2022/09/04 13:32:36;;;;;;;2.95;1.58;;;29.10;95.30;;;;;;4973769;28;20163;-75
2022/09/04 13:35:38;;;;;;;1.75;1.13;;;29.00;95.10;;;;;;4975133;28;20478;-72
2022/09/04 13:38:14;;;;;;;3.42;1.25;;;29.00;94.50;;;;;;4975014;28;20042;-74
2022/09/04 13:41:02;;;;;;;8.80;1.38;;;29.00;94.40;;;;;;4973758;28;20099;-72
2022/09/04 13:44:03;;;;;;;1.23;0.95;;;29.10;94.60;;;;;;4982442;28;20654;-73
2022/09/04 13:46:37;;;;;;;2.08;1.17;;;29.10;94.30;;;;;;4973441;28;20027;-73
2022/09/04 13:49:14;;;;;;;1.80;1.13;;;29.20;94.70;;;;;;4976278;28;20039;-71
2022/09/04 13:51:58;;;;;;;2.33;1.38;;;29.20;94.50;;;;;;4975835;28;20042;-74
2022/09/04 13:54:24;;;;;;;;;;;29.30;94.40;;;;;;4974150;28;20449;-71
2022/09/04 13:57:11;;;;;;;1.63;0.98;;;29.30;93.90;;;;;;4975584;28;19916;-71
2022/09/04 13:59:39;;;;;;;1.48;0.98;;;29.40;94.30;;;;;;4974188;28;20472;-75
2022/09/04 14:02:11;;;;;;;4.93;1.23;;;29.40;95.10;;;;;;4974390;28;20410;-71
2022/09/04 14:04:50;;;;;;;1.75;0.95;;;29.70;94.90;;;;;;4975305;28;20027;-76
2022/09/04 14:07:24;;;;;;;1.65;0.95;;;29.70;93.70;;;;;;4975240;28;20027;-74
2022/09/04 14:09:53;;;;;;;4.53;1.23;;;29.70;94.80;;;;;;4974898;28;20055;-72
2022/09/04 14:12:37;;;;;;;1.40;1.10;;;29.80;94.80;;;;;;4975128;28;20031;-72
2022/09/04 14:15:21;;;;;;;1.73;1.00;;;29.70;93.30;;;;;;4971884;28;20034;-73
2022/09/04 14:18:18;;;;;;;1.13;0.95;;;29.70;94.70;;;;;;4971744;28;20023;-70
2022/09/04 14:21:05;;;;;;;5.68;1.15;;;29.70;93.30;;;;;;4974150;28;20038;-72
2022/09/04 14:23:34;;;;;;;2.70;1.42;;;29.80;93.90;;;;;;4974194;28;20479;-75
2022/09/04 14:26:23;;;;;;;1.92;1.20;;;29.80;94.80;;;;;;4974769;28;20057;-72
2022/09/04 14:29:03;;;;;;;2.88;1.17;;;29.80;93.40;;;;;;4973991;28;20039;-73